sensor_id;sensor_type;location;lat;lon;timestamp;temperature;humidity
68813;DHT22;55808;48.112;11.552;2022-08-21T00:01:26;15.70;99.90
68813;DHT22;55808;48.112;11.552;2022-08-21T00:03:54;15.70;99.90
68813;DHT22;55808;48.112;11.552;2022-08-21T00:06:20;15.70;99.90
68813;DHT22;55808;48.112;11.552;2022-08-21T00:08:46;15.70;99.90
68813;DHT22;55808;48.112;11.552;2022-08-21T00:11:13;15.60;99.90
68813;DHT22;55808;48.112;11.552;2022-08-21T00:13:39;15.60;99.90
68813;DHT22;55808;48.112;11.552;2022-08-21T00:16:05;15.60;99.90
68813;DHT22;55808;48.112;11.552;2022-08-21T00:18:30;15.50;99.90
68813;DHT22;55808;48.112;11.552;2022-08-21T00:20:56;15.50;99.90
68813;DHT22;55808;48.112;11.552;2022-08-21T00:23:22;15.50;99.90
68813;DHT22;55808;48.112;11.552;2022-08-21T00:25:48;15.40;99.90
68813;DHT22;55808;48.112;11.552;2022-08-21T00:28:14;15.40;99.90
68813;DHT22;55808;48.112;11.552;2022-08-21T00:30:42;15.40;99.90
68813;DHT22;55808;48.112;11.552;2022-08-21T00:33:08;15.40;99.90
68813;DHT22;55808;48.112;11.552;2022-08-21T00:35:37;15.30;99.90
68813;DHT22;55808;48.112;11.552;2022-08-21T00:38:05;15.30;99.90
68813;DHT22;55808;48.112;11.552;2022-08-21T00:43:10;15.30;99.90
68813;DHT22;55808;48.112;11.552;2022-08-21T00:45:37;15.30;99.90
68813;DHT22;55808;48.112;11.552;2022-08-21T00:48:03;15.20;99.90
68813;DHT22;55808;48.112;11.552;2022-08-21T00:50:32;15.20;99.90
68813;DHT22;55808;48.112;11.552;2022-08-21T00:53:00;15.20;99.90
68813;DHT22;55808;48.112;11.552;2022-08-21T00:55:28;15.20;99.90
68813;DHT22;55808;48.112;11.552;2022-08-21T00:57:57;15.20;99.90
68813;DHT22;55808;48.112;11.552;2022-08-21T01:00:30;15.20;99.90
68813;DHT22;55808;48.112;11.552;2022-08-21T01:02:58;15.20;99.90
68813;DHT22;55808;48.112;11.552;2022-08-21T01:05:24;15.20;99.90
68813;DHT22;55808;48.112;11.552;2022-08-21T01:07:50;15.20;99.90
68813;DHT22;55808;48.112;11.552;2022-08-21T01:10:16;15.10;99.90
68813;DHT22;55808;48.112;11.552;2022-08-21T01:12:43;15.10;99.90
68813;DHT22;55808;48.112;11.552;2022-08-21T01:15:10;15.10;99.90
68813;DHT22;55808;48.112;11.552;2022-08-21T01:17:38;15.10;99.90
68813;DHT22;55808;48.112;11.552;2022-08-21T01:20:07;15.10;99.90
68813;DHT22;55808;48.112;11.552;2022-08-21T01:22:33;15.00;99.90
68813;DHT22;55808;48.112;11.552;2022-08-21T01:24:59;15.00;99.90
68813;DHT22;55808;48.112;11.552;2022-08-21T01:27:25;15.00;99.90
68813;DHT22;55808;48.112;11.552;2022-08-21T01:29:56;15.00;99.90
68813;DHT22;55808;48.112;11.552;2022-08-21T01:32:23;15.00;99.90
68813;DHT22;55808;48.112;11.552;2022-08-21T01:34:50;15.00;99.90
68813;DHT22;55808;48.112;11.552;2022-08-21T01:37:17;15.00;99.90
68813;DHT22;55808;48.112;11.552;2022-08-21T01:39:45;14.90;99.90
68813;DHT22;55808;48.112;11.552;2022-08-21T01:42:11;14.90;99.90
68813;DHT22;55808;48.112;11.552;2022-08-21T01:44:36;14.90;99.90
68813;DHT22;55808;48.112;11.552;2022-08-21T01:47:06;14.90;99.90
68813;DHT22;55808;48.112;11.552;2022-08-21T01:49:33;14.90;99.90
68813;DHT22;55808;48.112;11.552;2022-08-21T01:51:59;14.90;99.90
68813;DHT22;55808;48.112;11.552;2022-08-21T01:54:25;14.80;99.90
68813;DHT22;55808;48.112;11.552;2022-08-21T01:56:52;14.80;99.90
68813;DHT22;55808;48.112;11.552;2022-08-21T01:59:19;14.80;99.90
68813;DHT22;55808;48.112;11.552;2022-08-21T02:01:45;14.80;99.90
68813;DHT22;55808;48.112;11.552;2022-08-21T02:04:11;14.80;99.90
68813;DHT22;55808;48.112;11.552;2022-08-21T02:06:37;14.70;99.90
68813;DHT22;55808;48.112;11.552;2022-08-21T02:09:04;14.70;99.90
68813;DHT22;55808;48.112;11.552;2022-08-21T02:11:31;14.70;99.90
68813;DHT22;55808;48.112;11.552;2022-08-21T02:13:56;14.70;99.90
68813;DHT22;55808;48.112;11.552;2022-08-21T02:16:22;14.70;99.90
68813;DHT22;55808;48.112;11.552;2022-08-21T02:18:48;14.70;99.90
68813;DHT22;55808;48.112;11.552;2022-08-21T02:21:14;14.70;99.90
68813;DHT22;55808;48.112;11.552;2022-08-21T02:23:39;14.70;99.90
68813;DHT22;55808;48.112;11.552;2022-08-21T02:26:07;14.70;99.90
68813;DHT22;55808;48.112;11.552;2022-08-21T02:28:35;14.60;99.90
68813;DHT22;55808;48.112;11.552;2022-08-21T02:31:02;14.60;99.90
68813;DHT22;55808;48.112;11.552;2022-08-21T02:33:28;14.60;99.90
68813;DHT22;55808;48.112;11.552;2022-08-21T02:35:55;14.60;99.90
68813;DHT22;55808;48.112;11.552;2022-08-21T02:38:27;14.50;99.90
68813;DHT22;55808;48.112;11.552;2022-08-21T02:40:54;14.50;99.90
68813;DHT22;55808;48.112;11.552;2022-08-21T02:43:21;14.50;99.90
68813;DHT22;55808;48.112;11.552;2022-08-21T02:45:49;14.50;99.90
68813;DHT22;55808;48.112;11.552;2022-08-21T02:48:19;14.50;99.90
68813;DHT22;55808;48.112;11.552;2022-08-21T02:50:51;14.50;99.90
68813;DHT22;55808;48.112;11.552;2022-08-21T02:53:17;14.50;99.90
68813;DHT22;55808;48.112;11.552;2022-08-21T02:55:46;14.50;99.90
68813;DHT22;55808;48.112;11.552;2022-08-21T02:58:13;14.60;99.90
68813;DHT22;55808;48.112;11.552;2022-08-21T03:00:39;14.50;99.90
68813;DHT22;55808;48.112;11.552;2022-08-21T03:03:05;14.40;99.90
68813;DHT22;55808;48.112;11.552;2022-08-21T03:05:34;14.50;99.90
68813;DHT22;55808;48.112;11.552;2022-08-21T03:08:02;14.40;99.90
68813;DHT22;55808;48.112;11.552;2022-08-21T03:10:28;14.50;99.90
68813;DHT22;55808;48.112;11.552;2022-08-21T03:12:56;14.40;99.90
68813;DHT22;55808;48.112;11.552;2022-08-21T03:15:23;14.40;99.90
68813;DHT22;55808;48.112;11.552;2022-08-21T03:17:49;14.40;99.90
68813;DHT22;55808;48.112;11.552;2022-08-21T03:20:20;14.40;99.90
68813;DHT22;55808;48.112;11.552;2022-08-21T03:22:47;14.40;99.90
68813;DHT22;55808;48.112;11.552;2022-08-21T03:25:13;14.40;99.90
68813;DHT22;55808;48.112;11.552;2022-08-21T03:27:38;14.40;99.90
68813;DHT22;55808;48.112;11.552;2022-08-21T03:30:06;14.40;99.90
68813;DHT22;55808;48.112;11.552;2022-08-21T03:32:32;14.40;99.90
68813;DHT22;55808;48.112;11.552;2022-08-21T03:34:58;14.30;99.90
68813;DHT22;55808;48.112;11.552;2022-08-21T03:37:24;14.40;99.90
68813;DHT22;55808;48.112;11.552;2022-08-21T03:39:50;14.40;99.90
68813;DHT22;55808;48.112;11.552;2022-08-21T03:42:16;14.30;99.90
68813;DHT22;55808;48.112;11.552;2022-08-21T03:44:43;14.30;99.90
68813;DHT22;55808;48.112;11.552;2022-08-21T03:47:08;14.30;99.90
68813;DHT22;55808;48.112;11.552;2022-08-21T03:49:35;14.30;99.90
68813;DHT22;55808;48.112;11.552;2022-08-21T03:52:01;14.30;99.90
68813;DHT22;55808;48.112;11.552;2022-08-21T03:54:27;14.30;99.90
68813;DHT22;55808;48.112;11.552;2022-08-21T03:56:53;14.30;99.90
68813;DHT22;55808;48.112;11.552;2022-08-21T03:59:18;14.20;99.90
68813;DHT22;55808;48.112;11.552;2022-08-21T04:01:59;14.20;99.90
68813;DHT22;55808;48.112;11.552;2022-08-21T04:04:26;14.20;99.90
68813;DHT22;55808;48.112;11.552;2022-08-21T04:06:52;14.20;99.90
68813;DHT22;55808;48.112;11.552;2022-08-21T04:09:19;14.10;99.90
68813;DHT22;55808;48.112;11.552;2022-08-21T04:11:45;14.10;99.90
68813;DHT22;55808;48.112;11.552;2022-08-21T04:14:13;14.00;99.90
68813;DHT22;55808;48.112;11.552;2022-08-21T04:16:39;14.00;99.90
68813;DHT22;55808;48.112;11.552;2022-08-21T04:19:06;14.10;99.90
68813;DHT22;55808;48.112;11.552;2022-08-21T04:21:33;14.00;99.90
68813;DHT22;55808;48.112;11.552;2022-08-21T04:23:58;14.00;99.90
68813;DHT22;55808;48.112;11.552;2022-08-21T04:26:25;14.10;99.90
68813;DHT22;55808;48.112;11.552;2022-08-21T04:28:51;14.10;99.90
68813;DHT22;55808;48.112;11.552;2022-08-21T04:31:18;14.00;99.90
68813;DHT22;55808;48.112;11.552;2022-08-21T04:33:43;14.00;99.90
68813;DHT22;55808;48.112;11.552;2022-08-21T04:36:10;14.00;99.90
68813;DHT22;55808;48.112;11.552;2022-08-21T04:38:36;14.00;99.90
68813;DHT22;55808;48.112;11.552;2022-08-21T04:41:02;14.00;99.90
68813;DHT22;55808;48.112;11.552;2022-08-21T04:43:28;14.00;99.90
68813;DHT22;55808;48.112;11.552;2022-08-21T04:45:53;14.00;99.90
68813;DHT22;55808;48.112;11.552;2022-08-21T04:48:22;14.00;99.90
68813;DHT22;55808;48.112;11.552;2022-08-21T04:56:13;14.00;99.90
68813;DHT22;55808;48.112;11.552;2022-08-21T04:58:41;14.00;99.90
68813;DHT22;55808;48.112;11.552;2022-08-21T05:01:12;14.00;99.90
68813;DHT22;55808;48.112;11.552;2022-08-21T05:03:38;14.00;99.90
68813;DHT22;55808;48.112;11.552;2022-08-21T05:06:09;14.00;99.90
68813;DHT22;55808;48.112;11.552;2022-08-21T05:08:37;14.00;99.90
68813;DHT22;55808;48.112;11.552;2022-08-21T05:11:04;14.10;99.90
68813;DHT22;55808;48.112;11.552;2022-08-21T05:13:30;14.00;99.90
68813;DHT22;55808;48.112;11.552;2022-08-21T05:15:56;14.00;99.90
68813;DHT22;55808;48.112;11.552;2022-08-21T05:18:21;14.00;99.90
68813;DHT22;55808;48.112;11.552;2022-08-21T05:20:47;14.10;99.90
68813;DHT22;55808;48.112;11.552;2022-08-21T05:23:13;14.10;99.90
68813;DHT22;55808;48.112;11.552;2022-08-21T05:25:41;14.10;99.90
68813;DHT22;55808;48.112;11.552;2022-08-21T05:28:07;14.10;99.90
68813;DHT22;55808;48.112;11.552;2022-08-21T05:30:33;14.10;99.90
68813;DHT22;55808;48.112;11.552;2022-08-21T05:33:00;14.20;99.90
68813;DHT22;55808;48.112;11.552;2022-08-21T05:35:28;14.20;99.90
68813;DHT22;55808;48.112;11.552;2022-08-21T05:37:54;14.20;99.90
68813;DHT22;55808;48.112;11.552;2022-08-21T05:40:20;14.30;99.90
68813;DHT22;55808;48.112;11.552;2022-08-21T05:42:46;14.20;99.90
68813;DHT22;55808;48.112;11.552;2022-08-21T05:45:12;14.20;99.90
68813;DHT22;55808;48.112;11.552;2022-08-21T05:47:37;14.30;99.90
68813;DHT22;55808;48.112;11.552;2022-08-21T05:50:05;14.30;99.90
68813;DHT22;55808;48.112;11.552;2022-08-21T05:52:31;14.30;99.90
68813;DHT22;55808;48.112;11.552;2022-08-21T05:54:57;14.40;99.90
68813;DHT22;55808;48.112;11.552;2022-08-21T05:57:22;14.50;99.90
68813;DHT22;55808;48.112;11.552;2022-08-21T05:59:49;14.50;99.90
68813;DHT22;55808;48.112;11.552;2022-08-21T06:02:17;14.50;99.90
68813;DHT22;55808;48.112;11.552;2022-08-21T06:04:43;14.60;99.90
68813;DHT22;55808;48.112;11.552;2022-08-21T06:07:09;14.70;99.90
68813;DHT22;55808;48.112;11.552;2022-08-21T06:09:34;14.70;99.90
68813;DHT22;55808;48.112;11.552;2022-08-21T06:12:08;14.80;99.90
68813;DHT22;55808;48.112;11.552;2022-08-21T06:14:35;14.80;99.90
68813;DHT22;55808;48.112;11.552;2022-08-21T06:17:09;14.90;99.90
68813;DHT22;55808;48.112;11.552;2022-08-21T06:19:36;15.00;99.90
68813;DHT22;55808;48.112;11.552;2022-08-21T06:22:02;15.00;99.90
68813;DHT22;55808;48.112;11.552;2022-08-21T06:24:28;15.10;99.90
68813;DHT22;55808;48.112;11.552;2022-08-21T06:26:54;15.20;99.90
68813;DHT22;55808;48.112;11.552;2022-08-21T06:29:21;15.20;99.90
68813;DHT22;55808;48.112;11.552;2022-08-21T06:31:48;15.20;99.90
68813;DHT22;55808;48.112;11.552;2022-08-21T06:34:15;15.30;99.90
68813;DHT22;55808;48.112;11.552;2022-08-21T06:36:41;15.30;99.90
68813;DHT22;55808;48.112;11.552;2022-08-21T06:39:06;15.50;99.90
68813;DHT22;55808;48.112;11.552;2022-08-21T06:41:32;15.60;99.90
68813;DHT22;55808;48.112;11.552;2022-08-21T06:43:59;15.60;99.90
68813;DHT22;55808;48.112;11.552;2022-08-21T06:46:31;15.60;99.90
68813;DHT22;55808;48.112;11.552;2022-08-21T06:48:57;15.60;99.90
68813;DHT22;55808;48.112;11.552;2022-08-21T06:51:24;15.70;99.90
68813;DHT22;55808;48.112;11.552;2022-08-21T06:53:51;15.60;99.90
68813;DHT22;55808;48.112;11.552;2022-08-21T06:56:17;15.60;99.90
68813;DHT22;55808;48.112;11.552;2022-08-21T06:58:42;15.60;99.90
68813;DHT22;55808;48.112;11.552;2022-08-21T07:01:09;15.60;99.90
68813;DHT22;55808;48.112;11.552;2022-08-21T07:03:40;15.60;99.90
68813;DHT22;55808;48.112;11.552;2022-08-21T07:06:07;15.70;99.90
68813;DHT22;55808;48.112;11.552;2022-08-21T07:08:33;15.80;99.90
68813;DHT22;55808;48.112;11.552;2022-08-21T07:11:03;15.80;99.90
68813;DHT22;55808;48.112;11.552;2022-08-21T07:13:29;15.90;99.90
68813;DHT22;55808;48.112;11.552;2022-08-21T07:15:55;16.00;99.90
68813;DHT22;55808;48.112;11.552;2022-08-21T07:18:21;16.00;99.90
68813;DHT22;55808;48.112;11.552;2022-08-21T07:20:47;16.00;99.90
68813;DHT22;55808;48.112;11.552;2022-08-21T07:23:24;16.10;99.90
68813;DHT22;55808;48.112;11.552;2022-08-21T07:25:51;16.20;99.90
68813;DHT22;55808;48.112;11.552;2022-08-21T07:28:17;16.20;99.90
68813;DHT22;55808;48.112;11.552;2022-08-21T07:30:42;16.20;99.90
68813;DHT22;55808;48.112;11.552;2022-08-21T07:33:08;16.20;99.90
68813;DHT22;55808;48.112;11.552;2022-08-21T07:35:34;16.40;99.90
68813;DHT22;55808;48.112;11.552;2022-08-21T07:38:00;16.30;99.90
68813;DHT22;55808;48.112;11.552;2022-08-21T07:40:25;16.30;99.90
68813;DHT22;55808;48.112;11.552;2022-08-21T07:42:51;16.40;99.90
68813;DHT22;55808;48.112;11.552;2022-08-21T07:45:20;16.50;99.90
68813;DHT22;55808;48.112;11.552;2022-08-21T07:47:46;16.40;99.90
68813;DHT22;55808;48.112;11.552;2022-08-21T07:50:13;16.40;99.90
68813;DHT22;55808;48.112;11.552;2022-08-21T07:52:40;16.50;99.90
68813;DHT22;55808;48.112;11.552;2022-08-21T07:55:08;16.60;99.90
68813;DHT22;55808;48.112;11.552;2022-08-21T07:57:34;16.60;99.90
68813;DHT22;55808;48.112;11.552;2022-08-21T07:59:59;16.60;99.90
68813;DHT22;55808;48.112;11.552;2022-08-21T08:02:27;16.70;99.90
68813;DHT22;55808;48.112;11.552;2022-08-21T08:04:54;16.60;99.90
68813;DHT22;55808;48.112;11.552;2022-08-21T08:07:19;16.80;99.90
68813;DHT22;55808;48.112;11.552;2022-08-21T08:09:46;16.80;99.90
68813;DHT22;55808;48.112;11.552;2022-08-21T08:12:12;16.90;99.90
68813;DHT22;55808;48.112;11.552;2022-08-21T08:14:37;16.90;99.90
68813;DHT22;55808;48.112;11.552;2022-08-21T08:17:03;17.00;99.90
68813;DHT22;55808;48.112;11.552;2022-08-21T08:19:29;16.90;99.90
68813;DHT22;55808;48.112;11.552;2022-08-21T08:21:55;17.00;99.90
68813;DHT22;55808;48.112;11.552;2022-08-21T08:24:21;16.90;99.90
68813;DHT22;55808;48.112;11.552;2022-08-21T08:26:47;17.00;99.90
68813;DHT22;55808;48.112;11.552;2022-08-21T08:29:13;17.20;99.90
68813;DHT22;55808;48.112;11.552;2022-08-21T08:31:38;17.30;99.90
68813;DHT22;55808;48.112;11.552;2022-08-21T08:34:04;17.20;99.90
68813;DHT22;55808;48.112;11.552;2022-08-21T08:36:35;17.20;99.90
68813;DHT22;55808;48.112;11.552;2022-08-21T08:39:02;17.20;99.90
68813;DHT22;55808;48.112;11.552;2022-08-21T08:41:29;17.10;99.90
68813;DHT22;55808;48.112;11.552;2022-08-21T08:43:59;17.30;99.90
68813;DHT22;55808;48.112;11.552;2022-08-21T08:46:46;17.30;99.90
68813;DHT22;55808;48.112;11.552;2022-08-21T08:49:14;17.50;99.90
68813;DHT22;55808;48.112;11.552;2022-08-21T08:52:02;17.50;99.90
68813;DHT22;55808;48.112;11.552;2022-08-21T08:54:59;17.30;99.90
68813;DHT22;55808;48.112;11.552;2022-08-21T08:57:25;17.40;99.90
68813;DHT22;55808;48.112;11.552;2022-08-21T08:59:56;17.60;99.90
68813;DHT22;55808;48.112;11.552;2022-08-21T09:02:23;17.70;99.90
68813;DHT22;55808;48.112;11.552;2022-08-21T09:04:50;17.50;99.90
68813;DHT22;55808;48.112;11.552;2022-08-21T09:12:33;18.00;99.90
68813;DHT22;55808;48.112;11.552;2022-08-21T09:15:20;18.20;99.90
68813;DHT22;55808;48.112;11.552;2022-08-21T09:23:28;18.00;99.90
68813;DHT22;55808;48.112;11.552;2022-08-21T09:26:08;18.10;99.90
68813;DHT22;55808;48.112;11.552;2022-08-21T09:28:37;18.10;99.90
68813;DHT22;55808;48.112;11.552;2022-08-21T09:31:15;18.10;99.90
68813;DHT22;55808;48.112;11.552;2022-08-21T09:33:44;18.10;99.90
68813;DHT22;55808;48.112;11.552;2022-08-21T09:36:10;18.20;99.90
68813;DHT22;55808;48.112;11.552;2022-08-21T09:38:37;18.40;99.90
68813;DHT22;55808;48.112;11.552;2022-08-21T09:41:08;18.60;99.90
68813;DHT22;55808;48.112;11.552;2022-08-21T09:43:36;18.60;99.90
68813;DHT22;55808;48.112;11.552;2022-08-21T09:46:06;18.80;99.90
68813;DHT22;55808;48.112;11.552;2022-08-21T09:48:46;18.80;99.90
68813;DHT22;55808;48.112;11.552;2022-08-21T09:51:19;18.60;99.90
68813;DHT22;55808;48.112;11.552;2022-08-21T09:56:39;19.10;99.90
68813;DHT22;55808;48.112;11.552;2022-08-21T09:59:32;19.00;99.90
68813;DHT22;55808;48.112;11.552;2022-08-21T10:02:00;18.90;99.90
68813;DHT22;55808;48.112;11.552;2022-08-21T10:04:31;18.70;99.90
68813;DHT22;55808;48.112;11.552;2022-08-21T10:07:09;18.60;99.90
68813;DHT22;55808;48.112;11.552;2022-08-21T10:09:35;18.50;99.90
68813;DHT22;55808;48.112;11.552;2022-08-21T10:12:13;18.70;99.90
68813;DHT22;55808;48.112;11.552;2022-08-21T10:14:53;18.70;99.90
68813;DHT22;55808;48.112;11.552;2022-08-21T10:20:20;19.00;99.90
68813;DHT22;55808;48.112;11.552;2022-08-21T10:26:12;19.60;99.90
68813;DHT22;55808;48.112;11.552;2022-08-21T10:28:55;19.50;99.90
68813;DHT22;55808;48.112;11.552;2022-08-21T10:34:35;20.20;99.90
68813;DHT22;55808;48.112;11.552;2022-08-21T10:42:47;20.00;99.90
68813;DHT22;55808;48.112;11.552;2022-08-21T10:47:57;20.00;99.90
68813;DHT22;55808;48.112;11.552;2022-08-21T10:50:31;20.40;99.90
68813;DHT22;55808;48.112;11.552;2022-08-21T10:53:28;19.70;99.90
68813;DHT22;55808;48.112;11.552;2022-08-21T10:56:40;19.40;99.90
68813;DHT22;55808;48.112;11.552;2022-08-21T10:59:17;20.80;99.90
68813;DHT22;55808;48.112;11.552;2022-08-21T11:01:47;24.40;99.90
68813;DHT22;55808;48.112;11.552;2022-08-21T11:06:45;26.80;99.90
68813;DHT22;55808;48.112;11.552;2022-08-21T11:09:15;22.60;99.90
68813;DHT22;55808;48.112;11.552;2022-08-21T11:12:05;20.80;99.90
68813;DHT22;55808;48.112;11.552;2022-08-21T11:17:29;19.90;99.90
68813;DHT22;55808;48.112;11.552;2022-08-21T11:20:15;19.70;99.90
68813;DHT22;55808;48.112;11.552;2022-08-21T11:23:14;19.90;99.90
68813;DHT22;55808;48.112;11.552;2022-08-21T11:25:44;20.20;99.90
68813;DHT22;55808;48.112;11.552;2022-08-21T11:28:23;20.30;99.90
68813;DHT22;55808;48.112;11.552;2022-08-21T11:39:26;22.30;99.90
68813;DHT22;55808;48.112;11.552;2022-08-21T11:47:23;27.60;99.90
68813;DHT22;55808;48.112;11.552;2022-08-21T11:57:36;22.70;99.90
68813;DHT22;55808;48.112;11.552;2022-08-21T12:00:07;21.70;99.90
68813;DHT22;55808;48.112;11.552;2022-08-21T12:02:41;20.80;99.90
68813;DHT22;55808;48.112;11.552;2022-08-21T12:05:20;20.40;99.90
68813;DHT22;55808;48.112;11.552;2022-08-21T12:07:47;20.30;99.90
68813;DHT22;55808;48.112;11.552;2022-08-21T12:10:19;20.30;99.90
68813;DHT22;55808;48.112;11.552;2022-08-21T12:13:11;20.20;99.90
68813;DHT22;55808;48.112;11.552;2022-08-21T12:15:39;20.60;99.90
68813;DHT22;55808;48.112;11.552;2022-08-21T12:18:24;20.50;99.90
68813;DHT22;55808;48.112;11.552;2022-08-21T12:21:20;21.00;99.90
68813;DHT22;55808;48.112;11.552;2022-08-21T12:26:35;25.80;99.90
68813;DHT22;55808;48.112;11.552;2022-08-21T12:29:30;25.70;99.90
68813;DHT22;55808;48.112;11.552;2022-08-21T12:32:01;26.70;99.90
68813;DHT22;55808;48.112;11.552;2022-08-21T12:39:52;23.00;99.90
68813;DHT22;55808;48.112;11.552;2022-08-21T12:42:38;22.70;99.90
68813;DHT22;55808;48.112;11.552;2022-08-21T12:45:20;22.40;99.90
68813;DHT22;55808;48.112;11.552;2022-08-21T12:47:54;22.40;99.90
68813;DHT22;55808;48.112;11.552;2022-08-21T12:50:31;22.40;99.90
68813;DHT22;55808;48.112;11.552;2022-08-21T12:53:12;24.70;97.30
68813;DHT22;55808;48.112;11.552;2022-08-21T12:55:42;25.10;91.40
68813;DHT22;55808;48.112;11.552;2022-08-21T12:58:17;24.50;90.40
68813;DHT22;55808;48.112;11.552;2022-08-21T13:00:52;24.10;90.90
68813;DHT22;55808;48.112;11.552;2022-08-21T13:03:18;23.70;90.70
68813;DHT22;55808;48.112;11.552;2022-08-21T13:05:44;23.50;90.70
68813;DHT22;55808;48.112;11.552;2022-08-21T13:08:12;25.30;90.70
68813;DHT22;55808;48.112;11.552;2022-08-21T13:10:47;27.00;90.80
68813;DHT22;55808;48.112;11.552;2022-08-21T13:13:19;28.00;76.20
68813;DHT22;55808;48.112;11.552;2022-08-21T13:15:46;27.30;77.40
68813;DHT22;55808;48.112;11.552;2022-08-21T13:18:22;25.80;77.20
68813;DHT22;55808;48.112;11.552;2022-08-21T13:20:48;24.60;74.20
68813;DHT22;55808;48.112;11.552;2022-08-21T13:23:28;23.90;80.90
68813;DHT22;55808;48.112;11.552;2022-08-21T13:25:55;23.70;82.90
68813;DHT22;55808;48.112;11.552;2022-08-21T13:28:22;23.70;79.60
68813;DHT22;55808;48.112;11.552;2022-08-21T13:30:53;23.50;84.20
68813;DHT22;55808;48.112;11.552;2022-08-21T13:33:25;23.20;84.30
68813;DHT22;55808;48.112;11.552;2022-08-21T13:36:03;22.90;83.20
68813;DHT22;55808;48.112;11.552;2022-08-21T13:38:33;22.80;84.20
68813;DHT22;55808;48.112;11.552;2022-08-21T13:41:23;24.60;85.20
68813;DHT22;55808;48.112;11.552;2022-08-21T13:43:57;26.00;77.20
68813;DHT22;55808;48.112;11.552;2022-08-21T13:46:26;24.50;73.10
68813;DHT22;55808;48.112;11.552;2022-08-21T13:48:53;23.80;79.00
68813;DHT22;55808;48.112;11.552;2022-08-21T13:51:19;23.30;78.70
68813;DHT22;55808;48.112;11.552;2022-08-21T13:53:49;24.30;82.90
68813;DHT22;55808;48.112;11.552;2022-08-21T13:56:23;25.40;74.10
68813;DHT22;55808;48.112;11.552;2022-08-21T13:58:48;24.40;81.00
68813;DHT22;55808;48.112;11.552;2022-08-21T14:01:26;23.50;78.20
68813;DHT22;55808;48.112;11.552;2022-08-21T14:03:55;23.00;80.90
68813;DHT22;55808;48.112;11.552;2022-08-21T14:06:27;22.80;79.10
68813;DHT22;55808;48.112;11.552;2022-08-21T14:09:00;22.60;78.90
68813;DHT22;55808;48.112;11.552;2022-08-21T14:11:28;23.60;83.30
68813;DHT22;55808;48.112;11.552;2022-08-21T14:14:01;23.50;76.20
68813;DHT22;55808;48.112;11.552;2022-08-21T14:16:42;23.50;77.20
68813;DHT22;55808;48.112;11.552;2022-08-21T14:19:18;23.50;80.90
68813;DHT22;55808;48.112;11.552;2022-08-21T14:21:44;23.00;76.20
68813;DHT22;55808;48.112;11.552;2022-08-21T14:24:11;22.80;78.30
68813;DHT22;55808;48.112;11.552;2022-08-21T14:26:54;23.50;79.20
68813;DHT22;55808;48.112;11.552;2022-08-21T14:29:23;23.20;80.20
68813;DHT22;55808;48.112;11.552;2022-08-21T14:31:55;23.00;79.30
68813;DHT22;55808;48.112;11.552;2022-08-21T14:34:23;22.80;82.20
68813;DHT22;55808;48.112;11.552;2022-08-21T14:36:50;24.10;81.90
68813;DHT22;55808;48.112;11.552;2022-08-21T14:39:16;25.40;73.60
68813;DHT22;55808;48.112;11.552;2022-08-21T14:41:42;26.10;74.40
68813;DHT22;55808;48.112;11.552;2022-08-21T14:44:09;26.30;74.10
68813;DHT22;55808;48.112;11.552;2022-08-21T14:46:36;26.70;70.80
68813;DHT22;55808;48.112;11.552;2022-08-21T14:49:03;27.00;70.60
68813;DHT22;55808;48.112;11.552;2022-08-21T14:51:28;27.10;67.60
68813;DHT22;55808;48.112;11.552;2022-08-21T14:53:54;27.20;67.80
68813;DHT22;55808;48.112;11.552;2022-08-21T14:56:20;26.00;68.20
68813;DHT22;55808;48.112;11.552;2022-08-21T14:58:50;25.20;69.80
68813;DHT22;55808;48.112;11.552;2022-08-21T15:01:19;24.50;72.30
68813;DHT22;55808;48.112;11.552;2022-08-21T15:03:47;24.90;72.50
68813;DHT22;55808;48.112;11.552;2022-08-21T15:06:15;25.40;69.60
68813;DHT22;55808;48.112;11.552;2022-08-21T15:08:41;25.80;66.60
68813;DHT22;55808;48.112;11.552;2022-08-21T15:11:11;25.90;65.80
68813;DHT22;55808;48.112;11.552;2022-08-21T15:13:38;26.30;68.20
68813;DHT22;55808;48.112;11.552;2022-08-21T15:16:04;26.40;66.10
68813;DHT22;55808;48.112;11.552;2022-08-21T15:18:30;26.80;70.70
68813;DHT22;55808;48.112;11.552;2022-08-21T15:20:56;27.20;70.30
68813;DHT22;55808;48.112;11.552;2022-08-21T15:23:23;27.30;67.40
68813;DHT22;55808;48.112;11.552;2022-08-21T15:25:49;26.40;64.00
68813;DHT22;55808;48.112;11.552;2022-08-21T15:28:16;26.10;67.60
68813;DHT22;55808;48.112;11.552;2022-08-21T15:30:43;26.20;64.60
68813;DHT22;55808;48.112;11.552;2022-08-21T15:33:10;26.00;63.40
68813;DHT22;55808;48.112;11.552;2022-08-21T15:35:36;25.90;64.70
68813;DHT22;55808;48.112;11.552;2022-08-21T15:38:02;25.90;68.30
68813;DHT22;55808;48.112;11.552;2022-08-21T15:40:28;25.70;65.40
68813;DHT22;55808;48.112;11.552;2022-08-21T15:42:58;25.80;69.50
68813;DHT22;55808;48.112;11.552;2022-08-21T15:45:25;25.60;66.40
68813;DHT22;55808;48.112;11.552;2022-08-21T15:47:51;25.30;63.10
68813;DHT22;55808;48.112;11.552;2022-08-21T15:50:18;25.30;65.20
68813;DHT22;55808;48.112;11.552;2022-08-21T15:52:44;25.20;66.90
68813;DHT22;55808;48.112;11.552;2022-08-21T15:55:10;24.80;64.10
68813;DHT22;55808;48.112;11.552;2022-08-21T15:57:37;24.80;67.60
68813;DHT22;55808;48.112;11.552;2022-08-21T16:00:13;24.80;68.30
68813;DHT22;55808;48.112;11.552;2022-08-21T16:02:43;24.60;68.10
68813;DHT22;55808;48.112;11.552;2022-08-21T16:05:10;24.90;69.00
68813;DHT22;55808;48.112;11.552;2022-08-21T16:07:38;25.10;66.70
68813;DHT22;55808;48.112;11.552;2022-08-21T16:10:05;24.90;65.80
68813;DHT22;55808;48.112;11.552;2022-08-21T16:12:36;24.90;66.50
68813;DHT22;55808;48.112;11.552;2022-08-21T16:15:06;24.70;64.80
68813;DHT22;55808;48.112;11.552;2022-08-21T16:17:34;24.70;66.60
68813;DHT22;55808;48.112;11.552;2022-08-21T16:20:03;24.70;66.50
68813;DHT22;55808;48.112;11.552;2022-08-21T16:22:29;24.80;66.60
68813;DHT22;55808;48.112;11.552;2022-08-21T16:24:55;24.50;63.10
68813;DHT22;55808;48.112;11.552;2022-08-21T16:27:21;24.50;64.00
68813;DHT22;55808;48.112;11.552;2022-08-21T16:29:47;24.30;64.40
68813;DHT22;55808;48.112;11.552;2022-08-21T16:32:14;24.50;64.40
68813;DHT22;55808;48.112;11.552;2022-08-21T16:34:44;24.30;63.90
68813;DHT22;55808;48.112;11.552;2022-08-21T16:37:14;23.90;65.50
68813;DHT22;55808;48.112;11.552;2022-08-21T16:39:40;24.20;64.80
68813;DHT22;55808;48.112;11.552;2022-08-21T16:42:06;24.50;64.30